Time;durP1;ratioP1;P1;durP2;ratioP2;P2;SDS_P1;SDS_P2;PMS_P1;PMS_P2;Temp;Humidity;BMP_temperature;BMP_pressure;BME280_temperature;BME280_humidity;BME280_pressure;Samples;Min_cycle;Max_cycle;Signal;HPM_P1;HPM_P2
2024/01/09 00:01:44;;;;;;;;;;;;;;;-140.72;0.00;52549.13;5086371;28;20065;-72
2024/01/09 00:04:10;;;;;;;;;;;;;;;-140.72;0.00;52569.44;5097494;28;19967;-72
2024/01/09 00:06:35;;;;;;;;;;;;;;;-140.72;0.00;52549.13;5094062;28;19924;-72
2024/01/09 00:09:02;;;;;;;;;;;;;;;-140.72;0.00;52514.63;5095288;28;19927;-72
2024/01/09 00:11:27;;;;;;;;;;;;;;;-140.72;0.00;52528.84;5084277;28;20382;-72
2024/01/09 00:13:53;;;;;;;;;;;;;;;-140.72;0.00;52534.94;5105828;28;19920;-72
2024/01/09 00:16:18;;;;;;;;;;;;;;;-140.72;0.00;52524.78;5113145;28;20237;-72
2024/01/09 00:18:43;;;;;;;;;;;;;;;-140.72;0.00;52561.31;5090444;28;19933;-72
2024/01/09 00:21:08;;;;;;;;;;;;;;;-140.72;0.00;52528.84;5094386;28;19927;-72
2024/01/09 00:23:33;;;;;;;;;;;;;;;-140.72;0.00;52563.34;5084382;28;19928;-71
2024/01/09 00:25:59;;;;;;;;;;;;;;;-140.72;0.00;52543.03;5088848;28;19923;-71
2024/01/09 00:28:24;;;;;;;;;;;;;;;-140.72;0.00;52524.78;5099467;28;19920;-71
2024/01/09 00:30:50;;;;;;;;;;;;;;;-140.72;0.00;52536.97;5089535;28;19936;-71
2024/01/09 00:33:15;;;;;;;;;;;;;;;-140.72;0.00;52520.72;5099896;28;19927;-71
2024/01/09 00:35:40;;;;;;;;;;;;;;;-140.72;0.00;52553.19;5087332;28;19920;-71
2024/01/09 00:38:05;;;;;;;;;;;;;;;-140.72;0.00;52530.88;5090053;28;20469;-71
2024/01/09 00:40:30;;;;;;;;;;;;;;;-140.72;0.00;52563.34;5097885;28;20262;-72
2024/01/09 00:42:56;;;;;;;;;;;;;;;-140.72;0.00;52573.50;5098476;28;20456;-71
2024/01/09 00:45:21;;;;;;;;;;;;;;;-140.72;0.00;52553.19;5091718;28;19924;-71
2024/01/09 00:47:46;;;;;;;;;;;;;;;-140.72;0.00;52563.34;5087761;28;19916;-71
2024/01/09 00:50:11;;;;;;;;;;;;;;;-140.72;0.00;52569.44;5079455;28;19925;-70
2024/01/09 00:52:36;;;;;;;;;;;;;;;-140.72;0.00;52532.91;5079677;28;19974;-71
2024/01/09 00:55:02;;;;;;;;;;;;;;;-140.72;0.00;52534.94;5090144;28;19958;-71
2024/01/09 00:57:27;;;;;;;;;;;;;;;-140.72;0.00;52579.56;5100222;28;20001;-71
2024/01/09 00:59:52;;;;;;;;;;;;;;;-140.72;0.00;52597.84;5081576;28;19916;-71
2024/01/09 01:02:18;;;;;;;;;;;;;;;-140.72;0.00;52543.03;5088776;28;19924;-71
2024/01/09 01:04:43;;;;;;;;;;;;;;;-140.72;0.00;52616.09;5086210;28;19921;-71
2024/01/09 01:07:09;;;;;;;;;;;;;;;-140.72;0.00;52545.06;5092926;28;20305;-71
2024/01/09 01:09:34;;;;;;;;;;;;;;;-140.72;0.00;52567.41;5087876;28;20015;-71
2024/01/09 01:11:59;;;;;;;;;;;;;;;-140.72;0.00;52569.44;5089563;28;19927;-71
2024/01/09 01:14:24;;;;;;;;;;;;;;;-140.72;0.00;52559.28;5070812;28;19916;-71
2024/01/09 01:16:49;;;;;;;;;;;;;;;-140.72;0.00;52561.31;5093871;28;19920;-71
2024/01/09 01:19:15;;;;;;;;;;;;;;;-140.72;0.00;52534.94;5094544;28;19924;-71
2024/01/09 01:21:40;;;;;;;;;;;;;;;-140.72;0.00;52545.06;5088637;28;19957;-71
2024/01/09 01:24:05;;;;;;;;;;;;;;;-140.72;0.00;52530.88;5087403;28;19946;-71
2024/01/09 01:26:30;;;;;;;;;;;;;;;-140.72;0.00;52569.44;5090106;28;19967;-71
2024/01/09 01:28:56;;;;;;;;;;;;;;;-140.72;0.00;52539.00;5086554;28;19920;-70
2024/01/09 01:31:21;;;;;;;;;;;;;;;-140.72;0.00;52524.78;5096866;28;19919;-71
2024/01/09 01:33:46;;;;;;;;;;;;;;;-140.72;0.00;52559.28;5098961;28;19963;-71
2024/01/09 01:36:12;;;;;;;;;;;;;;;-140.72;0.00;52593.78;5100489;28;19923;-71
2024/01/09 01:38:37;;;;;;;;;;;;;;;-140.72;0.00;52553.19;5074832;28;19939;-71
2024/01/09 01:41:03;;;;;;;;;;;;;;;-140.72;0.00;52561.31;5096376;28;19921;-71
2024/01/09 01:43:28;;;;;;;;;;;;;;;-140.72;0.00;52539.00;5095983;28;19977;-71
2024/01/09 01:45:54;;;;;;;;;;;;;;;-140.72;0.00;52589.72;5090031;28;19970;-71
2024/01/09 01:48:19;;;;;;;;;;;;;;;-140.72;0.00;52559.28;5094772;28;19922;-71
2024/01/09 01:50:45;;;;;;;;;;;;;;;-140.72;0.00;52567.41;5081291;28;20354;-71
2024/01/09 01:53:10;;;;;;;;;;;;;;;-140.72;0.00;52597.84;5091438;28;19927;-71
2024/01/09 01:55:36;;;;;;;;;;;;;;;-140.72;0.00;52581.59;5091695;28;19924;-71
2024/01/09 01:58:02;;;;;;;;;;;;;;;-140.72;0.00;52571.47;5101911;28;19935;-71
2024/01/09 02:00:28;;;;;;;;;;;;;;;-140.72;0.00;52553.19;5091520;28;19946;-71
2024/01/09 02:02:53;;;;;;;;;;;;;;;-140.72;0.00;52536.97;5097019;28;19920;-71
2024/01/09 02:05:20;;;;;;;;;;;;;;;-140.72;0.00;52563.34;5100038;28;19916;-71
2024/01/09 02:07:46;;;;;;;;;;;;;;;-140.72;0.00;52553.19;5096771;28;19931;-71
2024/01/09 02:10:12;;;;;;;;;;;;;;;-140.72;0.00;52553.19;5088735;28;19919;-71
2024/01/09 02:12:37;;;;;;;;;;;;;;;-140.72;0.00;52573.50;5077565;28;20057;-71
2024/01/09 02:15:04;;;;;;;;;;;;;;;-140.72;0.00;52561.31;5097072;28;19928;-71
2024/01/09 02:17:29;;;;;;;;;;;;;;;-140.72;0.00;52543.03;5092023;28;19977;-71
2024/01/09 02:19:54;;;;;;;;;;;;;;;-140.72;0.00;52555.22;5093703;28;19916;-71
2024/01/09 02:22:20;;;;;;;;;;;;;;;-140.72;0.00;52575.50;5075546;28;19939;-71
2024/01/09 02:24:45;;;;;;;;;;;;;;;-140.72;0.00;52565.38;5097889;28;19924;-71
2024/01/09 02:27:22;;;;;;;;;;;;;;;-140.72;0.00;52589.72;5091740;28;20457;-71
2024/01/09 02:29:50;;;;;;;;;;;;;;;-140.72;0.00;52575.50;5105741;28;20455;-71
2024/01/09 02:32:16;;;;;;;;;;;;;;;-140.72;0.00;52516.66;5090033;28;19925;-71
2024/01/09 02:34:42;;;;;;;;;;;;;;;-140.72;0.00;52563.34;5102125;28;19970;-71
2024/01/09 02:37:07;;;;;;;;;;;;;;;-140.72;0.00;52561.31;5099410;28;19960;-71
2024/01/09 02:39:32;;;;;;;;;;;;;;;-140.72;0.00;52536.97;5102787;28;19935;-71
2024/01/09 02:41:57;;;;;;;;;;;;;;;-140.72;0.00;52575.50;5094666;28;19924;-71
2024/01/09 02:44:23;;;;;;;;;;;;;;;-140.72;0.00;52571.47;5093801;28;19943;-71
2024/01/09 02:46:48;;;;;;;;;;;;;;;-140.72;0.00;52557.25;5084429;28;19924;-71
2024/01/09 02:49:13;;;;;;;;;;;;;;;-140.72;0.00;52571.47;5082537;28;19920;-71
2024/01/09 02:51:39;;;;;;;;;;;;;;;-140.72;0.00;52547.09;5094827;28;19924;-71
2024/01/09 02:54:04;;;;;;;;;;;;;;;-140.72;0.00;52514.63;5092749;28;19926;-70
2024/01/09 02:56:30;;;;;;;;;;;;;;;-140.72;0.00;52520.72;5099823;28;19920;-71
2024/01/09 02:58:55;;;;;;;;;;;;;;;-140.72;0.00;52577.53;5105526;28;19916;-71
2024/01/09 03:01:23;;;;;;;;;;;;;;;-140.72;0.00;52595.81;5093361;28;20011;-71
2024/01/09 03:03:48;;;;;;;;;;;;;;;-140.72;0.00;52577.53;5079679;28;19960;-71
2024/01/09 03:06:13;;;;;;;;;;;;;;;-140.72;0.00;52557.25;5084785;28;19920;-71
2024/01/09 03:08:39;;;;;;;;;;;;;;;-140.72;0.00;52557.25;5076538;28;19923;-71
2024/01/09 03:11:04;;;;;;;;;;;;;;;-140.72;0.00;52585.66;5106701;28;19919;-71
2024/01/09 03:13:29;;;;;;;;;;;;;;;-140.72;0.00;52555.22;5104788;28;20055;-71
2024/01/09 03:15:54;;;;;;;;;;;;;;;-140.72;0.00;52541.03;5084180;28;20070;-71
2024/01/09 03:18:20;;;;;;;;;;;;;;;-140.72;0.00;52553.19;5095220;28;20018;-71
2024/01/09 03:20:45;;;;;;;;;;;;;;;-140.72;0.00;52543.03;5098804;28;19920;-71
2024/01/09 03:23:10;;;;;;;;;;;;;;;-140.72;0.00;52575.50;5098182;28;19920;-71
2024/01/09 03:25:35;;;;;;;;;;;;;;;-140.72;0.00;52573.50;5085357;28;19930;-71
2024/01/09 03:28:00;;;;;;;;;;;;;;;-140.72;0.00;52530.88;5093208;28;20026;-71
2024/01/09 03:30:29;;;;;;;;;;;;;;;-140.72;0.00;52589.72;5090239;28;19977;-71
2024/01/09 03:32:54;;;;;;;;;;;;;;;-140.72;0.00;52589.72;5095335;28;19920;-71
2024/01/09 03:35:19;;;;;;;;;;;;;;;-140.72;0.00;52597.84;5086048;28;19994;-71
2024/01/09 03:37:44;;;;;;;;;;;;;;;-140.72;0.00;52536.97;5074840;28;20019;-71
2024/01/09 03:40:10;;;;;;;;;;;;;;;-140.72;0.00;52549.13;5102586;28;19989;-71
2024/01/09 03:42:36;;;;;;;;;;;;;;;-140.72;0.00;52581.59;5096868;28;19955;-71
2024/01/09 03:45:01;;;;;;;;;;;;;;;-140.72;0.00;52553.19;5096734;28;19943;-71
2024/01/09 03:47:26;;;;;;;;;;;;;;;-140.72;0.00;52522.75;5082877;28;20010;-71
2024/01/09 03:49:51;;;;;;;;;;;;;;;-140.72;0.00;52585.66;5098594;28;19920;-71
2024/01/09 03:52:16;;;;;;;;;;;;;;;-140.72;0.00;52585.66;5081182;28;19963;-71
2024/01/09 03:54:42;;;;;;;;;;;;;;;-140.72;0.00;52573.50;5063580;28;19928;-71
2024/01/09 03:57:07;;;;;;;;;;;;;;;-140.72;0.00;52563.34;5096833;28;19942;-71
2024/01/09 03:59:33;;;;;;;;;;;;;;;-140.72;0.00;52595.81;5100917;28;19999;-71
2024/01/09 04:01:58;;;;;;;;;;;;;;;-140.72;0.00;52567.41;5097289;28;20027;-71
2024/01/09 04:04:24;;;;;;;;;;;;;;;-140.72;0.00;52553.19;5104377;28;20010;-71
2024/01/09 04:06:49;;;;;;;;;;;;;;;-140.72;0.00;52583.63;5100576;28;19952;-71
2024/01/09 04:09:14;;;;;;;;;;;;;;;-140.72;0.00;52557.25;5103474;28;20373;-71
2024/01/09 04:11:46;;;;;;;;;;;;;;;-140.72;0.00;52571.47;5103547;28;19920;-71
2024/01/09 04:14:11;;;;;;;;;;;;;;;-140.72;0.00;52532.91;5089700;28;20014;-71
2024/01/09 04:16:37;;;;;;;;;;;;;;;-140.72;0.00;52541.03;5096410;28;20015;-71
2024/01/09 04:19:02;;;;;;;;;;;;;;;-140.72;0.00;52597.84;5075565;28;20356;-70
2024/01/09 04:21:27;;;;;;;;;;;;;;;-140.72;0.00;52575.50;5090557;28;20029;-72
2024/01/09 04:23:53;;;;;;;;;;;;;;;-140.72;0.00;52593.78;5097899;28;20243;-72
2024/01/09 04:26:18;;;;;;;;;;;;;;;-140.72;0.00;52541.03;5092355;28;19924;-72
2024/01/09 04:28:43;;;;;;;;;;;;;;;-140.72;0.00;52563.34;5095634;28;20309;-72
2024/01/09 04:31:08;;;;;;;;;;;;;;;-140.72;0.00;52581.59;5080013;28;20396;-72
2024/01/09 04:33:34;;;;;;;;;;;;;;;-140.72;0.00;52618.13;5105895;28;19926;-72
2024/01/09 04:35:59;;;;;;;;;;;;;;;-140.72;0.00;52549.13;5102043;28;19924;-72
2024/01/09 04:38:24;;;;;;;;;;;;;;;-140.72;0.00;52571.47;5093425;28;19987;-72
2024/01/09 04:40:50;;;;;;;;;;;;;;;-140.72;0.00;52605.94;5081324;28;20014;-71
2024/01/09 04:43:15;;;;;;;;;;;;;;;-140.72;0.00;52630.31;5091764;28;20003;-72
2024/01/09 04:45:40;;;;;;;;;;;;;;;-140.72;0.00;52567.41;5104182;28;19977;-72
2024/01/09 04:48:06;;;;;;;;;;;;;;;-140.72;0.00;52583.63;5088092;28;19920;-72
2024/01/09 04:50:31;;;;;;;;;;;;;;;-140.72;0.00;52612.03;5090671;28;19939;-72
2024/01/09 04:52:56;;;;;;;;;;;;;;;-140.72;0.00;52599.88;5103315;28;19920;-74
2024/01/09 04:55:21;;;;;;;;;;;;;;;-140.72;0.00;52569.44;5094457;28;19956;-71
2024/01/09 04:57:47;;;;;;;;;;;;;;;-140.72;0.00;52545.06;5106442;28;19920;-72
2024/01/09 05:00:12;;;;;;;;;;;;;;;-140.72;0.00;52553.19;5092853;28;19916;-72
2024/01/09 05:02:38;;;;;;;;;;;;;;;-140.72;0.00;52603.94;5095636;28;19947;-74
2024/01/09 05:05:03;;;;;;;;;;;;;;;-140.72;0.00;52553.19;5094523;28;19920;-72
2024/01/09 05:07:29;;;;;;;;;;;;;;;-140.72;0.00;52567.41;5098171;28;19966;-71
2024/01/09 05:09:54;;;;;;;;;;;;;;;-140.72;0.00;52557.25;5101616;28;19925;-72
2024/01/09 05:12:20;;;;;;;;;;;;;;;-140.72;0.00;52575.50;5093456;28;19920;-71
2024/01/09 05:14:45;;;;;;;;;;;;;;;-140.72;0.00;52597.84;5076145;28;20331;-72
2024/01/09 05:17:11;;;;;;;;;;;;;;;-140.72;0.00;52565.38;5098647;28;19993;-72
2024/01/09 05:19:36;;;;;;;;;;;;;;;-140.72;0.00;52569.44;5088301;28;19920;-72
2024/01/09 05:22:01;;;;;;;;;;;;;;;-140.72;0.00;52575.50;5099916;28;19945;-71
2024/01/09 05:24:27;;;;;;;;;;;;;;;-140.72;0.00;52553.19;5095289;28;19964;-72
2024/01/09 05:26:52;;;;;;;;;;;;;;;-140.72;0.00;52577.53;5093182;28;19985;-72
2024/01/09 05:29:17;;;;;;;;;;;;;;;-140.72;0.00;52561.31;5092589;28;19931;-71
2024/01/09 05:31:43;;;;;;;;;;;;;;;-140.72;0.00;52593.78;5090688;28;19927;-75
2024/01/09 05:34:08;;;;;;;;;;;;;;;-140.72;0.00;52593.78;5073576;28;20367;-71
2024/01/09 05:36:34;;;;;;;;;;;;;;;-140.72;0.00;52573.50;5104740;28;20018;-73
2024/01/09 05:38:59;;;;;;;;;;;;;;;-140.72;0.00;52555.22;5099697;28;19924;-71
2024/01/09 05:41:24;;;;;;;;;;;;;;;-140.72;0.00;52601.91;5094146;28;19920;-71
2024/01/09 05:43:49;;;;;;;;;;;;;;;-140.72;0.00;52553.19;5082947;28;19956;-70
2024/01/09 05:46:14;;;;;;;;;;;;;;;-140.72;0.00;52569.44;5096720;28;20026;-73
2024/01/09 05:48:40;;;;;;;;;;;;;;;-140.72;0.00;52591.75;5094062;28;20414;-73
2024/01/09 05:51:06;;;;;;;;;;;;;;;-140.72;0.00;52549.13;5100339;28;20426;-71
2024/01/09 05:53:31;;;;;;;;;;;;;;;-140.72;0.00;52547.09;5084453;28;19924;-72
2024/01/09 05:55:56;;;;;;;;;;;;;;;-140.72;0.00;52589.72;5106618;28;20018;-71
2024/01/09 05:58:21;;;;;;;;;;;;;;;-140.72;0.00;52632.34;5101095;28;19927;-71
2024/01/09 06:00:47;;;;;;;;;;;;;;;-140.72;0.00;52599.88;5094961;28;19924;-71
2024/01/09 06:03:12;;;;;;;;;;;;;;;-140.72;0.00;52573.50;5090875;28;19916;-71
2024/01/09 06:05:37;;;;;;;;;;;;;;;-140.72;0.00;52605.94;5090740;28;20003;-71
2024/01/09 06:08:03;;;;;;;;;;;;;;;-140.72;0.00;52569.44;5087284;28;20061;-71
2024/01/09 06:10:28;;;;;;;;;;;;;;;-140.72;0.00;52616.09;5092220;28;19924;-71
2024/01/09 06:12:53;;;;;;;;;;;;;;;-140.72;0.00;52567.41;5091124;28;19984;-71
2024/01/09 06:15:19;;;;;;;;;;;;;;;-140.72;0.00;52575.50;5106614;28;20356;-71
2024/01/09 06:17:44;;;;;;;;;;;;;;;-140.72;0.00;52585.66;5095259;28;19924;-72
2024/01/09 06:20:09;;;;;;;;;;;;;;;-140.72;0.00;52628.28;5089075;28;19927;-73
2024/01/09 06:22:35;;;;;;;;;;;;;;;-140.72;0.00;52565.38;5081516;28;19932;-73
2024/01/09 06:25:00;;;;;;;;;;;;;;;-140.72;0.00;52565.38;5092321;28;19920;-71
2024/01/09 06:27:25;;;;;;;;;;;;;;;-140.72;0.00;52597.84;5085164;28;20288;-72
2024/01/09 06:29:50;;;;;;;;;;;;;;;-140.72;0.00;52595.81;5075649;28;19923;-71
2024/01/09 06:32:15;;;;;;;;;;;;;;;-140.72;0.00;52585.66;5082381;28;20011;-71
2024/01/09 06:34:41;;;;;;;;;;;;;;;-140.72;0.00;52614.06;5091652;28;19966;-71
2024/01/09 06:37:06;;;;;;;;;;;;;;;-140.72;0.00;52618.13;5081122;28;19963;-71
2024/01/09 06:39:31;;;;;;;;;;;;;;;-140.72;0.00;52589.72;5082991;28;19951;-71
2024/01/09 06:41:56;;;;;;;;;;;;;;;-140.72;0.00;52581.59;5072918;28;19959;-71
2024/01/09 06:44:21;;;;;;;;;;;;;;;-140.72;0.00;52589.72;5077792;28;20018;-71
2024/01/09 06:46:47;;;;;;;;;;;;;;;-140.72;0.00;52555.22;5091762;28;19928;-77
2024/01/09 06:49:12;;;;;;;;;;;;;;;-140.72;0.00;52565.38;5069146;28;19916;-73
2024/01/09 06:51:37;;;;;;;;;;;;;;;-140.72;0.00;52597.84;5082537;28;19970;-74
2024/01/09 06:54:02;;;;;;;;;;;;;;;-140.72;0.00;52614.06;5077644;28;19969;-73
2024/01/09 06:56:27;;;;;;;;;;;;;;;-140.72;0.00;52593.78;5086450;28;20014;-73
2024/01/09 06:58:53;;;;;;;;;;;;;;;-140.72;0.00;52616.09;5094590;28;19920;-73
2024/01/09 07:01:19;;;;;;;;;;;;;;;-140.72;0.00;52547.09;5104492;28;19920;-75
2024/01/09 07:03:46;;;;;;;;;;;;;;;-140.72;0.00;52614.06;5099788;28;20396;-69
2024/01/09 07:06:11;;;;;;;;;;;;;;;-140.72;0.00;52565.38;5103623;28;19919;-70
2024/01/09 07:08:36;;;;;;;;;;;;;;;-140.72;0.00;52575.50;5084294;28;19916;-71
2024/01/09 07:11:02;;;;;;;;;;;;;;;-140.72;0.00;52585.66;5099813;28;19920;-70
2024/01/09 07:13:27;;;;;;;;;;;;;;;-140.72;0.00;52597.84;5091558;28;19968;-70
2024/01/09 07:15:52;;;;;;;;;;;;;;;-140.72;0.00;52557.25;5095103;28;19917;-70
2024/01/09 07:18:17;;;;;;;;;;;;;;;-140.72;0.00;52601.91;5087091;28;20015;-70
2024/01/09 07:20:43;;;;;;;;;;;;;;;-140.72;0.00;52585.66;5094605;28;19923;-70
2024/01/09 07:23:08;;;;;;;;;;;;;;;-140.72;0.00;52603.94;5105259;28;20028;-70
2024/01/09 07:25:34;;;;;;;;;;;;;;;-140.72;0.00;52605.94;5091093;28;19927;-70
2024/01/09 07:27:59;;;;;;;;;;;;;;;-140.72;0.00;52636.38;5108658;28;19923;-70
2024/01/09 07:30:24;;;;;;;;;;;;;;;-140.72;0.00;52614.06;5098702;28;20196;-71
2024/01/09 07:32:50;;;;;;;;;;;;;;;-140.72;0.00;52601.91;5101308;28;19923;-71
2024/01/09 07:35:15;;;;;;;;;;;;;;;-140.72;0.00;52585.66;5091373;28;19922;-71
2024/01/09 07:37:40;;;;;;;;;;;;;;;-140.72;0.00;52585.66;5094144;28;20006;-71
2024/01/09 07:40:06;;;;;;;;;;;;;;;-140.72;0.00;52593.78;5097537;28;19924;-70
2024/01/09 07:42:31;;;;;;;;;;;;;;;-140.72;0.00;52616.09;5091172;28;19999;-70
2024/01/09 07:44:56;;;;;;;;;;;;;;;-140.72;0.00;52616.09;5090220;28;19919;-70
2024/01/09 07:47:22;;;;;;;;;;;;;;;-140.72;0.00;52601.91;5091897;28;20254;-71
2024/01/09 07:49:47;;;;;;;;;;;;;;;-140.72;0.00;52630.31;5099636;28;19920;-70
2024/01/09 07:52:12;;;;;;;;;;;;;;;-140.72;0.00;52630.31;5086633;28;19969;-70
2024/01/09 07:54:38;;;;;;;;;;;;;;;-140.72;0.00;52605.94;5080423;28;19943;-70
2024/01/09 07:57:03;;;;;;;;;;;;;;;-140.72;0.00;52640.44;5089745;28;20322;-70
2024/01/09 07:59:28;;;;;;;;;;;;;;;-140.72;0.00;52589.72;5081692;28;19924;-70
2024/01/09 08:01:56;;;;;;;;;;;;;;;-140.72;0.00;52601.91;5096384;28;19924;-70
2024/01/09 08:04:22;;;;;;;;;;;;;;;-140.72;0.00;52597.84;5088101;28;19955;-70
2024/01/09 08:06:50;;;;;;;;;;;;;;;-140.72;0.00;52607.97;5091110;28;19927;-70
2024/01/09 08:09:16;;;;;;;;;;;;;;;-140.72;0.00;52638.41;5092176;28;19920;-70
2024/01/09 08:11:41;;;;;;;;;;;;;;;-140.72;0.00;52577.53;5093907;28;20351;-70
2024/01/09 08:14:06;;;;;;;;;;;;;;;-140.72;0.00;52561.31;5096071;28;19920;-70
2024/01/09 08:16:31;;;;;;;;;;;;;;;-140.72;0.00;52622.19;5094728;28;19916;-70
2024/01/09 08:18:57;;;;;;;;;;;;;;;-140.72;0.00;52616.09;5092564;28;19926;-70
2024/01/09 08:21:22;;;;;;;;;;;;;;;-140.72;0.00;52583.63;5093185;28;20006;-70
2024/01/09 08:23:47;;;;;;;;;;;;;;;-140.72;0.00;52603.94;5094216;28;19916;-70
2024/01/09 08:26:13;;;;;;;;;;;;;;;-140.72;0.00;52565.38;5103614;28;19945;-70
2024/01/09 08:28:38;;;;;;;;;;;;;;;-140.72;0.00;52581.59;5087557;28;19920;-71
2024/01/09 08:31:03;;;;;;;;;;;;;;;-140.72;0.00;52577.53;5089283;28;19924;-71
2024/01/09 08:33:31;;;;;;;;;;;;;;;-140.72;0.00;52614.06;5091375;28;20057;-74
2024/01/09 08:35:57;;;;;;;;;;;;;;;-140.72;0.00;52573.50;5074854;28;19916;-71
2024/01/09 08:38:22;;;;;;;;;;;;;;;-140.72;0.00;52581.59;5092311;28;20012;-71
2024/01/09 08:40:52;;;;;;;;;;;;;;;-140.72;0.00;52622.19;5089902;28;19971;-71
2024/01/09 08:43:17;;;;;;;;;;;;;;;-140.72;0.00;52581.59;5093015;28;19927;-71
2024/01/09 08:45:43;;;;;;;;;;;;;;;-140.72;0.00;52551.16;5084388;28;19916;-71
2024/01/09 08:48:08;;;;;;;;;;;;;;;-140.72;0.00;52585.66;5096237;28;19924;-71
2024/01/09 08:50:34;;;;;;;;;;;;;;;-140.72;0.00;52569.44;5094486;28;19920;-71
2024/01/09 08:52:59;;;;;;;;;;;;;;;-140.72;0.00;52610.00;5091934;28;19926;-71
2024/01/09 08:55:24;;;;;;;;;;;;;;;-140.72;0.00;52559.28;5097282;28;19931;-71
2024/01/09 08:57:49;;;;;;;;;;;;;;;-140.72;0.00;52567.41;5090327;28;19920;-71
2024/01/09 09:00:15;;;;;;;;;;;;;;;-140.72;0.00;52593.78;5093267;28;19917;-71
2024/01/09 09:02:40;;;;;;;;;;;;;;;-140.72;0.00;52605.94;5101024;28;19916;-71
2024/01/09 09:05:06;;;;;;;;;;;;;;;-140.72;0.00;52567.41;5102786;28;19916;-71
2024/01/09 09:07:31;;;;;;;;;;;;;;;-140.72;0.00;52583.63;5101230;28;19923;-71
2024/01/09 09:09:57;;;;;;;;;;;;;;;-140.72;0.00;52591.75;5082797;28;20212;-71
2024/01/09 09:12:22;;;;;;;;;;;;;;;-140.72;0.00;52605.94;5098329;28;19923;-71
2024/01/09 09:14:47;;;;;;;;;;;;;;;-140.72;0.00;52555.22;5093770;28;19924;-71
2024/01/09 09:17:14;;;;;;;;;;;;;;;-140.72;0.00;52591.75;5087817;28;19923;-70
2024/01/09 09:19:39;;;;;;;;;;;;;;;-140.72;0.00;52583.63;5093159;28;19943;-71
2024/01/09 09:22:04;;;;;;;;;;;;;;;-140.72;0.00;52569.44;5109161;28;19916;-71
2024/01/09 09:24:30;;;;;;;;;;;;;;;-140.72;0.00;52591.75;5091797;28;19924;-70
2024/01/09 09:26:55;;;;;;;;;;;;;;;-140.72;0.00;52597.84;5091757;28;19924;-70
2024/01/09 09:29:20;;;;;;;;;;;;;;;-140.72;0.00;52577.53;5091686;28;20293;-70
2024/01/09 09:31:45;;;;;;;;;;;;;;;-140.72;0.00;52555.22;5092728;28;19961;-70
2024/01/09 09:34:11;;;;;;;;;;;;;;;-140.72;0.00;52575.50;5099932;28;19920;-71
2024/01/09 09:36:36;;;;;;;;;;;;;;;-140.72;0.00;52618.13;5081268;28;19920;-70
2024/01/09 09:39:02;;;;;;;;;;;;;;;-140.72;0.00;52599.88;5100756;28;19966;-70
2024/01/09 09:41:28;;;;;;;;;;;;;;;-140.72;0.00;52569.44;5089675;28;19915;-70
2024/01/09 09:43:57;;;;;;;;;;;;;;;-140.72;0.00;52577.53;5096270;28;19923;-69
2024/01/09 09:46:26;;;;;;;;;;;;;;;-140.72;0.00;52565.38;5086756;28;20374;-70
2024/01/09 09:48:53;;;;;;;;;;;;;;;-140.72;0.00;52587.69;5095362;28;20396;-70
2024/01/09 09:51:19;;;;;;;;;;;;;;;-140.72;0.00;52567.41;5083578;28;19927;-70
2024/01/09 09:53:45;;;;;;;;;;;;;;;-140.72;0.00;52585.66;5084556;28;20014;-70
2024/01/09 09:56:12;;;;;;;;;;;;;;;-140.72;0.00;52549.13;5099841;28;20015;-70
2024/01/09 09:58:37;;;;;;;;;;;;;;;-140.72;0.00;52589.72;5103822;28;19916;-70
2024/01/09 10:01:03;;;;;;;;;;;;;;;-140.72;0.00;52612.03;5091598;28;19922;-70
2024/01/09 10:03:33;;;;;;;;;;;;;;;-140.72;0.00;52601.91;5089369;28;20014;-70
2024/01/09 10:06:02;;;;;;;;;;;;;;;-140.72;0.00;52565.38;5095076;28;19942;-70
2024/01/09 10:08:29;;;;;;;;;;;;;;;-140.72;0.00;52557.25;5095568;28;19931;-70
2024/01/09 10:10:55;;;;;;;;;;;;;;;-140.72;0.00;52549.13;5093280;28;19916;-70
2024/01/09 10:13:22;;;;;;;;;;;;;;;-140.72;0.00;52585.66;5091451;28;19923;-70
2024/01/09 10:16:00;;;;;;;;;;;;;;;-140.72;0.00;52561.31;5097912;28;20010;-70
2024/01/09 10:18:29;;;;;;;;;;;;;;;-140.72;0.00;52508.56;5078931;28;19971;-70
2024/01/09 10:20:55;;;;;;;;;;;;;;;-140.72;0.00;52597.84;5094007;28;20023;-70
2024/01/09 10:23:21;;;;;;;;;;;;;;;-140.72;0.00;52553.19;5095517;28;20348;-70
2024/01/09 10:25:46;;;;;;;;;;;;;;;-140.72;0.00;52512.59;5093237;28;19923;-70
2024/01/09 10:28:16;;;;;;;;;;;;;;;-140.72;0.00;52563.34;5102374;28;19926;-70
2024/01/09 10:30:41;;;;;;;;;;;;;;;-140.72;0.00;52536.97;5104669;28;19942;-70
2024/01/09 10:33:13;;;;;;;;;;;;;;;-140.72;0.00;52520.72;5098408;28;19968;-70
2024/01/09 10:35:38;;;;;;;;;;;;;;;-140.72;0.00;52530.88;5097780;28;19960;-70
2024/01/09 10:38:04;;;;;;;;;;;;;;;-140.72;0.00;52484.19;5093441;28;19916;-70
2024/01/09 10:40:29;;;;;;;;;;;;;;;-140.72;0.00;52512.59;5098604;28;19932;-70
2024/01/09 10:42:54;;;;;;;;;;;;;;;-140.72;0.00;52506.53;5105159;28;19977;-70
2024/01/09 10:45:23;;;;;;;;;;;;;;;-140.72;0.00;52518.69;5073526;28;19966;-70
2024/01/09 10:47:53;;;;;;;;;;;;;;;-140.72;0.00;52455.78;5077531;28;20318;-70
2024/01/09 10:50:19;;;;;;;;;;;;;;;-140.72;0.00;52478.13;5090877;28;19924;-70
2024/01/09 10:52:46;;;;;;;;;;;;;;;-140.72;0.00;52484.19;5097929;28;20356;-70
2024/01/09 10:55:12;;;;;;;;;;;;;;;-140.72;0.00;52465.94;5095653;28;20373;-70
2024/01/09 10:57:37;;;;;;;;;;;;;;;-140.72;0.00;52490.28;5105976;28;19923;-70
2024/01/09 11:00:08;;;;;;;;;;;;;;;-140.72;0.00;52514.63;5094759;28;19920;-70
2024/01/09 11:02:36;;;;;;;;;;;;;;;-140.72;0.00;52512.59;5102944;28;19974;-70
2024/01/09 11:05:01;;;;;;;;;;;;;;;-140.72;0.00;52524.78;5078505;28;20050;-70
2024/01/09 11:07:26;;;;;;;;;;;;;;;-140.72;0.00;52510.59;5094385;28;19951;-70
2024/01/09 11:09:53;;;;;;;;;;;;;;;-140.72;0.00;52496.38;5092729;28;19927;-70
2024/01/09 11:12:20;;;;;;;;;;;;;;;-140.72;0.00;52539.00;5093374;28;19927;-70
2024/01/09 11:14:49;;;;;;;;;;;;;;;-140.72;0.00;52545.06;5089449;28;20018;-70
2024/01/09 11:17:16;;;;;;;;;;;;;;;-140.72;0.00;52498.41;5092542;28;19916;-70
2024/01/09 11:19:41;;;;;;;;;;;;;;;-140.72;0.00;52506.53;5080038;28;19926;-70
2024/01/09 11:22:13;;;;;;;;;;;;;;;-140.72;0.00;52470.00;5094516;28;19920;-70
2024/01/09 11:24:38;;;;;;;;;;;;;;;-140.72;0.00;52498.41;5076003;28;19924;-70
2024/01/09 11:27:10;;;;;;;;;;;;;;;-140.72;0.00;52492.31;5094295;28;19916;-70
2024/01/09 11:30:05;;;;;;;;;;;;;;;-140.72;0.00;52528.84;5093817;28;20347;-70
2024/01/09 11:32:33;;;;;;;;;;;;;;;-140.72;0.00;52472.03;5079575;28;19924;-70
2024/01/09 11:35:07;;;;;;;;;;;;;;;-140.72;0.00;52536.97;5111549;28;19924;-70
2024/01/09 11:37:32;;;;;;;;;;;;;;;-140.72;0.00;52504.50;5090688;28;20001;-70
2024/01/09 11:39:58;;;;;;;;;;;;;;;-140.72;0.00;52520.72;5096334;28;20377;-70
2024/01/09 11:42:23;;;;;;;;;;;;;;;-140.72;0.00;52512.59;5080889;28;19924;-70
2024/01/09 11:44:48;;;;;;;;;;;;;;;-140.72;0.00;52484.19;5088362;28;19916;-70
2024/01/09 11:47:13;;;;;;;;;;;;;;;-140.72;0.00;52504.50;5088576;28;20319;-70
2024/01/09 11:49:39;;;;;;;;;;;;;;;-140.72;0.00;52492.31;5099154;28;19923;-70
2024/01/09 11:52:04;;;;;;;;;;;;;;;-140.72;0.00;52506.53;5074921;28;19928;-70
2024/01/09 11:54:30;;;;;;;;;;;;;;;-140.72;0.00;52512.59;5093067;28;19927;-69
2024/01/09 11:56:55;;;;;;;;;;;;;;;-140.72;0.00;52524.78;5105472;28;19931;-70
2024/01/09 11:59:21;;;;;;;;;;;;;;;-140.72;0.00;52470.00;5093404;28;20219;-70
2024/01/09 12:01:47;;;;;;;;;;;;;;;-140.72;0.00;52518.69;5095987;28;19916;-70
2024/01/09 12:04:13;;;;;;;;;;;;;;;-140.72;0.00;52457.81;5104050;28;20045;-70
2024/01/09 12:06:38;;;;;;;;;;;;;;;-140.72;0.00;52506.53;5093054;28;20381;-70
2024/01/09 12:09:04;;;;;;;;;;;;;;;-140.72;0.00;52461.88;5091078;28;19981;-70
2024/01/09 12:11:29;;;;;;;;;;;;;;;-140.72;0.00;52482.16;5105827;28;19931;-70
2024/01/09 12:13:58;;;;;;;;;;;;;;;-140.72;0.00;52496.38;5105165;28;19916;-70
2024/01/09 12:16:24;;;;;;;;;;;;;;;-140.72;0.00;52474.06;5107758;28;19959;-70
2024/01/09 12:18:51;;;;;;;;;;;;;;;-140.72;0.00;52463.91;5100664;28;19916;-70
2024/01/09 12:21:17;;;;;;;;;;;;;;;-140.72;0.00;52459.84;5076417;28;19920;-70
2024/01/09 12:23:42;;;;;;;;;;;;;;;-140.72;0.00;52463.91;5094660;28;19958;-70
2024/01/09 12:26:09;;;;;;;;;;;;;;;-140.72;0.00;52472.03;5102524;28;19924;-70
2024/01/09 12:28:34;;;;;;;;;;;;;;;-140.72;0.00;52453.75;5093381;28;19916;-70